Time;durP1;ratioP1;P1;durP2;ratioP2;P2;SDS_P1;SDS_P2;PMS_P1;PMS_P2;Temp;Humidity;BMP_temperature;BMP_pressure;BME280_temperature;BME280_humidity;BME280_pressure;Samples;Min_cycle;Max_cycle;Signal;HPM_P1;HPM_P2
2022/04/30 00:00:58;;;;;;;19.67;16.17;;;;;;;15.77;100.00;99844.16;5007362;28;20239;-54
2022/04/30 00:03:27;;;;;;;18.20;15.73;;;;;;;15.76;100.00;99846.84;5007090;28;20198;-54
2022/04/30 00:05:55;;;;;;;22.63;16.63;;;;;;;15.79;100.00;99847.56;5007121;28;20198;-59
2022/04/30 00:08:22;;;;;;;19.67;16.80;;;;;;;15.80;100.00;99844.00;5007238;28;20200;-57
2022/04/30 00:10:50;;;;;;;18.57;15.67;;;;;;;15.71;100.00;99826.09;5007010;28;20581;-58
2022/04/30 00:13:17;;;;;;;23.77;16.03;;;;;;;15.83;100.00;99837.78;5007238;28;20609;-54
2022/04/30 00:15:44;;;;;;;16.83;14.80;;;;;;;15.74;100.00;99841.69;5009544;28;20953;-53
2022/04/30 00:18:12;;;;;;;19.77;16.83;;;;;;;15.73;100.00;99841.75;5046139;28;20197;-53
2022/04/30 00:20:45;;;;;;;17.53;15.73;;;;;;;15.70;100.00;99844.47;5036206;28;20308;-54
2022/04/30 00:23:19;;;;;;;18.10;15.40;;;;;;;15.56;100.00;99826.81;5020532;28;20201;-53
2022/04/30 00:25:51;;;;;;;20.40;15.43;;;;;;;15.63;100.00;99849.16;5026399;28;20229;-54
2022/04/30 00:28:19;;;;;;;19.50;15.90;;;;;;;15.59;100.00;99845.81;5026826;28;20202;-57
2022/04/30 00:30:46;;;;;;;18.87;16.13;;;;;;;15.56;100.00;99845.13;5026493;28;20197;-57
2022/04/30 00:33:15;;;;;;;19.57;16.03;;;;;;;15.57;100.00;99857.28;5026436;28;20208;-58
2022/04/30 00:35:42;;;;;;;21.00;16.37;;;;;;;15.54;100.00;99852.16;5026616;28;20586;-57
2022/04/30 00:38:09;;;;;;;21.50;17.03;;;;;;;15.57;100.00;99837.22;5026364;28;20212;-57
2022/04/30 00:40:36;;;;;;;24.97;16.60;;;;;;;15.61;100.00;99836.13;5026376;28;20221;-53
2022/04/30 00:43:04;;;;;;;19.90;16.23;;;;;;;15.64;100.00;99839.53;5026770;28;20284;-52
2022/04/30 00:45:30;;;;;;;18.90;16.90;;;;;;;15.60;100.00;99829.19;5026554;28;20204;-57
2022/04/30 00:47:58;;;;;;;21.10;18.23;;;;;;;15.56;100.00;99834.66;5026405;28;20727;-57
2022/04/30 00:50:29;;;;;;;21.87;17.07;;;;;;;15.57;100.00;99836.34;5026190;28;20525;-58
2022/04/30 00:52:58;;;;;;;18.70;16.07;;;;;;;15.45;100.00;99829.00;5026636;28;20589;-57
2022/04/30 00:55:29;;;;;;;20.10;16.33;;;;;;;15.47;100.00;99829.75;5028019;28;20678;-57
2022/04/30 00:58:01;;;;;;;23.00;16.67;;;;;;;15.43;100.00;99841.31;5029595;28;20285;-58
2022/04/30 01:00:29;;;;;;;23.53;17.60;;;;;;;15.38;100.00;99825.78;5029427;28;20218;-57
2022/04/30 01:02:56;;;;;;;20.13;17.70;;;;;;;15.44;100.00;99830.78;5029491;28;20616;-58
2022/04/30 01:05:23;;;;;;;18.43;15.83;;;;;;;15.48;100.00;99828.84;5029419;28;20567;-58
2022/04/30 01:07:52;;;;;;;24.10;18.00;;;;;;;15.47;100.00;99824.53;5029393;28;20292;-58
2022/04/30 01:10:20;;;;;;;21.60;17.80;;;;;;;15.47;100.00;99822.78;5029402;28;20194;-57
2022/04/30 01:12:48;;;;;;;24.77;18.70;;;;;;;15.48;100.00;99821.00;5029330;28;20230;-57
2022/04/30 01:15:15;;;;;;;21.37;17.33;;;;;;;15.57;100.00;99810.19;5029505;28;20714;-58
2022/04/30 01:17:43;;;;;;;20.50;16.97;;;;;;;15.54;100.00;99812.91;5029102;28;20697;-58
2022/04/30 01:20:11;;;;;;;26.00;17.43;;;;;;;15.48;100.00;99813.16;5029387;28;20734;-58
2022/04/30 01:22:52;;;;;;;23.90;17.67;;;;;;;15.40;100.00;99818.72;5029397;28;20636;-53
2022/04/30 01:25:21;;;;;;;22.83;18.07;;;;;;;15.39;100.00;99819.66;5029219;28;20233;-54
2022/04/30 01:27:49;;;;;;;19.73;17.57;;;;;;;15.32;100.00;99820.00;5029375;28;20201;-54
2022/04/30 01:30:17;;;;;;;23.00;19.37;;;;;;;15.29;100.00;99825.34;5029147;28;20284;-53
2022/04/30 01:38:15;;;;;;;23.73;18.13;;;;;;;15.13;100.00;99809.44;5029685;28;20361;-54
2022/04/30 01:40:42;;;;;;;22.63;18.00;;;;;;;15.02;100.00;99799.44;5028833;28;20295;-54
2022/04/30 01:43:09;;;;;;;24.53;17.83;;;;;;;15.08;100.00;99812.28;5028914;28;20254;-53
2022/04/30 01:45:37;;;;;;;20.77;18.30;;;;;;;15.08;100.00;99817.50;5029186;28;20694;-53
2022/04/30 01:48:05;;;;;;;20.97;17.93;;;;;;;15.03;100.00;99819.44;5029084;28;20198;-54
2022/04/30 01:50:34;;;;;;;23.57;17.57;;;;;;;14.99;100.00;99810.06;5028258;28;20198;-53
2022/04/30 01:53:01;;;;;;;23.90;17.20;;;;;;;15.08;100.00;99819.28;5021095;28;20216;-53
2022/04/30 01:55:30;;;;;;;22.77;17.73;;;;;;;14.97;100.00;99814.50;5009063;28;20234;-54
2022/04/30 01:57:57;;;;;;;21.17;17.43;;;;;;;15.04;100.00;99815.94;5009007;28;20209;-54
2022/04/30 02:00:25;;;;;;;24.50;17.30;;;;;;;15.03;100.00;99809.00;5009019;28;20209;-57
2022/04/30 02:02:55;;;;;;;21.13;16.97;;;;;;;15.00;100.00;99809.16;5009071;28;20198;-57
2022/04/30 02:05:22;;;;;;;20.93;17.47;;;;;;;15.07;100.00;99818.41;5008970;28;20275;-58
2022/04/30 02:07:53;;;;;;;20.00;17.07;;;;;;;15.06;100.00;99811.50;5007780;28;20198;-57
2022/04/30 02:10:22;;;;;;;20.17;17.17;;;;;;;15.09;100.00;99811.38;5009080;28;20705;-58
2022/04/30 02:12:51;;;;;;;26.10;17.60;;;;;;;15.07;100.00;99809.72;5008802;28;20599;-58
2022/04/30 02:15:19;;;;;;;22.27;17.10;;;;;;;15.10;100.00;99807.00;5008890;28;20197;-58
2022/04/30 02:17:47;;;;;;;20.70;17.90;;;;;;;15.12;100.00;99803.38;5008633;28;20202;-59
2022/04/30 02:20:22;;;;;;;20.17;17.00;;;;;;;15.09;100.00;99798.28;5008686;28;20198;-59
2022/04/30 02:22:50;;;;;;;22.97;17.13;;;;;;;15.11;100.00;99790.38;5008757;28;20694;-57
2022/04/30 02:25:18;;;;;;;22.30;16.03;;;;;;;14.90;100.00;99772.06;5008630;28;20261;-55
2022/04/30 02:27:48;;;;;;;27.50;17.43;;;;;;;14.96;100.00;99791.88;5008501;28;20200;-53
2022/04/30 02:30:18;;;;;;;22.87;17.60;;;;;;;14.96;100.00;99794.50;5008607;28;20206;-54
2022/04/30 02:32:47;;;;;;;20.90;17.73;;;;;;;14.94;100.00;99801.56;5008239;28;20675;-54
2022/04/30 02:35:15;;;;;;;22.10;17.97;;;;;;;14.89;100.00;99796.53;5008876;28;20816;-53
2022/04/30 02:37:44;;;;;;;21.80;17.87;;;;;;;14.89;100.00;99811.38;5008434;28;20202;-52
2022/04/30 02:40:15;;;;;;;23.60;17.90;;;;;;;14.88;100.00;99804.44;5008580;28;20233;-53
2022/04/30 02:42:44;;;;;;;20.77;17.07;;;;;;;14.85;100.00;99801.94;5008371;28;20230;-54
2022/04/30 02:45:12;;;;;;;29.23;21.00;;;;;;;14.85;100.00;99809.78;5008366;28;20213;-58
2022/04/30 02:47:42;;;;;;;24.50;16.90;;;;;;;14.88;100.00;99801.81;5008177;28;20293;-58
2022/04/30 02:50:11;;;;;;;19.43;17.33;;;;;;;14.83;100.00;99806.38;5008253;28;20208;-58
2022/04/30 02:52:39;;;;;;;20.83;17.27;;;;;;;14.94;100.00;99804.16;5008249;28;20194;-59
2022/04/30 02:55:07;;;;;;;21.57;18.00;;;;;;;14.95;100.00;99815.47;5008358;28;20233;-58
2022/04/30 02:59:53;;;;;;;21.90;18.60;;;;;;;14.88;100.00;99814.88;5008481;28;20195;-58
2022/04/30 03:00:31;;;;;;;20.77;16.97;;;;;;;14.91;100.00;99812.13;5008049;28;20262;-58
2022/04/30 03:03:00;;;;;;;23.97;17.27;;;;;;;14.92;100.00;99810.38;5008340;28;20202;-58
2022/04/30 03:05:27;;;;;;;22.00;18.30;;;;;;;14.94;100.00;99814.63;5007916;28;20297;-57
2022/04/30 03:07:54;;;;;;;26.73;18.50;;;;;;;14.95;100.00;99810.25;5008049;28;20214;-57
2022/04/30 03:10:21;;;;;;;23.83;18.47;;;;;;;14.95;100.00;99810.25;5007836;28;20454;-54
2022/04/30 03:12:49;;;;;;;24.33;18.97;;;;;;;14.94;100.00;99801.56;5007369;28;20622;-54
2022/04/30 03:15:19;;;;;;;24.83;19.00;;;;;;;14.79;100.00;99773.44;5030542;28;20725;-54
2022/04/30 03:23:16;;;;;;;24.60;18.27;;;;;;;14.81;100.00;99802.97;5031567;28;20236;-53
2022/04/30 03:25:44;;;;;;;23.70;18.80;;;;;;;14.74;100.00;99809.38;5026138;28;20237;-54
2022/04/30 03:28:11;;;;;;;21.73;18.77;;;;;;;14.69;100.00;99804.31;5026926;28;20232;-53
2022/04/30 03:30:38;;;;;;;20.20;17.53;;;;;;;14.69;100.00;99801.72;5026724;28;20248;-58
2022/04/30 03:33:08;;;;;;;22.93;18.33;;;;;;;14.58;100.00;99810.91;5026764;28;20218;-59
2022/04/30 03:35:38;;;;;;;26.40;19.20;;;;;;;14.59;100.00;99808.22;5010864;28;20218;-59
2022/04/30 03:38:06;;;;;;;21.77;18.17;;;;;;;14.63;100.00;99812.44;5007342;28;20666;-59
2022/04/30 03:40:34;;;;;;;24.37;18.27;;;;;;;14.67;100.00;99813.16;5006108;28;20222;-59
2022/04/30 03:43:01;;;;;;;22.57;18.87;;;;;;;14.66;100.00;99811.47;5006984;28;20618;-58
2022/04/30 03:45:28;;;;;;;24.87;19.77;;;;;;;14.65;100.00;99812.38;5032971;28;20711;-58
2022/04/30 03:47:55;;;;;;;27.60;19.10;;;;;;;14.66;100.00;99807.09;5023955;28;20232;-58
2022/04/30 03:50:22;;;;;;;26.70;20.27;;;;;;;14.59;100.00;99815.22;5027324;28;20204;-58
2022/04/30 03:52:50;;;;;;;22.47;19.03;;;;;;;14.60;100.00;99812.53;5027064;28;20200;-57
2022/04/30 03:55:18;;;;;;;23.13;20.57;;;;;;;14.63;100.00;99819.41;5027176;28;20201;-59
2022/04/30 03:57:45;;;;;;;23.47;19.00;;;;;;;14.60;100.00;99820.38;5027400;28;20201;-59
2022/04/30 04:00:13;;;;;;;22.63;18.83;;;;;;;14.51;100.00;99820.75;5027273;28;20197;-59
2022/04/30 04:02:41;;;;;;;24.50;19.60;;;;;;;14.56;100.00;99818.78;5025259;28;20213;-59
2022/04/30 04:05:10;;;;;;;28.67;19.43;;;;;;;14.54;100.00;99825.88;5007374;28;20202;-58
2022/04/30 04:07:37;;;;;;;19.37;17.30;;;;;;;14.54;100.00;99825.88;5014223;28;20189;-58
2022/04/30 04:10:07;;;;;;;26.77;19.43;;;;;;;14.53;100.00;99826.78;5016439;28;20255;-59
2022/04/30 04:12:34;;;;;;;24.27;18.10;;;;;;;14.53;100.00;99825.00;5015870;28;20197;-58
2022/04/30 04:17:45;;;;;;;22.93;19.60;;;;;;;14.48;100.00;99834.78;5022830;28;20200;-59
2022/04/30 04:20:14;;;;;;;20.73;18.53;;;;;;;14.48;100.00;99834.78;5015246;28;20209;-58
2022/04/30 04:22:41;;;;;;;22.37;19.30;;;;;;;14.55;100.00;99831.94;5014286;28;20228;-59
2022/04/30 04:27:55;;;;;;;23.40;18.87;;;;;;;14.51;100.00;99839.03;5021187;28;20681;-58
2022/04/30 04:30:22;;;;;;;22.90;18.37;;;;;;;14.50;100.00;99835.56;5019746;28;20231;-60
2022/04/30 04:32:49;;;;;;;20.33;18.10;;;;;;;14.48;100.00;99837.38;5014510;28;20193;-58
2022/04/30 04:35:16;;;;;;;23.03;17.63;;;;;;;14.50;100.00;99838.19;5023364;28;20654;-58
2022/04/30 04:37:44;;;;;;;23.60;17.93;;;;;;;14.47;100.00;99840.91;5029667;28;20206;-58
2022/04/30 04:40:14;;;;;;;22.47;18.67;;;;;;;14.48;100.00;99836.53;5030018;28;20280;-58
2022/04/30 04:42:42;;;;;;;21.07;18.60;;;;;;;14.57;100.00;99845.75;5021913;28;20217;-59
2022/04/30 04:45:10;;;;;;;22.97;17.00;;;;;;;14.56;100.00;99841.47;5010207;28;20689;-59
2022/04/30 04:47:40;;;;;;;21.23;16.87;;;;;;;14.65;100.00;99854.16;5017754;28;20224;-58
2022/04/30 04:50:09;;;;;;;24.07;16.70;;;;;;;14.60;100.00;99854.34;5029149;28;20744;-59
2022/04/30 04:52:36;;;;;;;20.13;17.00;;;;;;;14.56;100.00;99850.13;5021419;28;20193;-59
2022/04/30 04:55:04;;;;;;;22.47;18.03;;;;;;;14.64;100.00;99857.69;5015386;28;20197;-58
2022/04/30 04:57:32;;;;;;;18.50;16.60;;;;;;;14.63;100.00;99856.84;5019522;28;20797;-58
2022/04/30 04:59:59;;;;;;;20.17;18.07;;;;;;;14.65;100.00;99854.16;5017465;28;20284;-58
2022/04/30 05:02:26;;;;;;;19.53;16.87;;;;;;;14.71;100.00;99859.13;5018463;28;20218;-59
2022/04/30 05:04:53;;;;;;;20.97;16.87;;;;;;;14.85;100.00;99855.06;5017009;28;20190;-58
2022/04/30 05:07:20;;;;;;;20.13;17.47;;;;;;;14.92;100.00;99850.41;5018919;28;20219;-59
2022/04/30 05:09:47;;;;;;;20.40;17.57;;;;;;;15.00;100.00;99850.97;5018537;28;20212;-59
2022/04/30 05:12:14;;;;;;;19.97;16.97;;;;;;;15.22;100.00;99857.00;5017062;28;20191;-58
2022/04/30 05:14:42;;;;;;;18.87;16.50;;;;;;;15.57;100.00;99863.38;5016276;28;20391;-59
2022/04/30 05:17:09;;;;;;;19.40;15.93;;;;;;;15.81;100.00;99865.78;5009462;28;20198;-57
2022/04/30 05:19:36;;;;;;;17.67;15.90;;;;;;;16.02;100.00;99861.38;5008622;28;20205;-59
2022/04/30 05:22:04;;;;;;;18.90;16.07;;;;;;;16.18;100.00;99857.97;5008927;28;20583;-59
2022/04/30 05:24:31;;;;;;;18.80;16.77;;;;;;;16.29;100.00;99865.34;5008414;28;20202;-58
2022/04/30 05:26:57;;;;;;;20.60;16.43;;;;;;;16.30;100.00;99877.53;5008515;28;20208;-59
2022/04/30 05:29:24;;;;;;;17.23;15.53;;;;;;;16.42;100.00;99878.72;5008618;28;20237;-59
2022/04/30 05:31:53;;;;;;;16.63;14.90;;;;;;;16.39;100.00;99873.63;5008470;28;20693;-60
2022/04/30 05:34:20;;;;;;;20.73;14.97;;;;;;;16.47;100.00;99877.59;5009256;28;20793;-59
2022/04/30 05:36:47;;;;;;;19.33;15.90;;;;;;;16.47;100.00;99888.06;5008402;28;20201;-59
2022/04/30 05:39:14;;;;;;;18.40;15.70;;;;;;;16.55;100.00;99895.56;5008592;28;20202;-59
2022/04/30 05:41:41;;;;;;;18.43;15.10;;;;;;;16.49;100.00;99886.22;5017642;28;20221;-59
2022/04/30 05:44:08;;;;;;;20.60;16.37;;;;;;;16.66;100.00;99888.94;5018105;28;20284;-59
2022/04/30 05:46:35;;;;;;;16.60;15.00;;;;;;;16.88;100.00;99901.00;5016650;28;20195;-59
2022/04/30 05:49:03;;;;;;;20.57;15.90;;;;;;;16.95;100.00;99903.25;5016631;28;20190;-59
2022/04/30 05:51:30;;;;;;;17.17;14.90;;;;;;;16.96;100.00;99904.94;5017618;28;20197;-58
2022/04/30 05:53:58;;;;;;;19.63;15.83;;;;;;;16.99;100.00;99909.19;5018417;28;20679;-58
2022/04/30 05:56:24;;;;;;;18.23;16.30;;;;;;;16.96;100.00;99907.56;5016831;28;20198;-53
2022/04/30 05:58:51;;;;;;;18.47;15.13;;;;;;;17.01;100.00;99912.59;5025187;28;20198;-53
2022/04/30 06:01:18;;;;;;;21.20;15.20;;;;;;;17.06;100.00;99908.81;5028808;28;20258;-53
2022/04/30 06:03:45;;;;;;;19.03;15.70;;;;;;;17.26;100.00;99907.00;5028621;28;20256;-51
2022/04/30 06:06:14;;;;;;;22.30;15.20;;;;;;;17.92;100.00;99907.97;5028759;28;20747;-53
2022/04/30 06:08:41;;;;;;;20.40;15.00;;;;;;;18.48;100.00;99906.69;5025388;28;20206;-53
2022/04/30 06:11:08;;;;;;;18.77;14.43;;;;;;;18.79;100.00;99909.34;5019518;28;20205;-54
2022/04/30 06:13:35;;;;;;;17.67;13.73;;;;;;;19.61;97.44;99887.94;5017069;28;20218;-54
2022/04/30 06:16:02;;;;;;;15.98;14.25;;;;;;;20.13;93.76;99896.13;5016731;28;20305;-54
2022/04/30 06:18:29;;;;;;;14.98;13.45;;;;;;;20.77;90.76;99904.44;5021918;28;20618;-53
2022/04/30 06:20:56;;;;;;;15.70;14.30;;;;;;;20.69;89.33;99902.28;5027576;28;20236;-53
2022/04/30 06:23:24;;;;;;;15.82;13.32;;;;;;;20.25;91.84;99905.06;5027601;28;20229;-53
2022/04/30 06:25:51;;;;;;;17.70;14.20;;;;;;;19.75;92.77;99902.91;5027755;28;20237;-54
2022/04/30 06:28:18;;;;;;;15.15;13.55;;;;;;;19.47;95.48;99907.16;5020149;28;20227;-60
2022/04/30 06:30:45;;;;;;;15.18;13.63;;;;;;;19.56;96.23;99893.47;5023428;28;20312;-59
2022/04/30 06:33:12;;;;;;;16.98;13.70;;;;;;;19.68;95.62;99906.84;5015918;28;20217;-58
2022/04/30 06:35:39;;;;;;;16.60;13.77;;;;;;;19.97;93.96;99905.94;5016864;28;21017;-58
2022/04/30 06:38:07;;;;;;;18.42;14.88;;;;;;;20.19;92.49;99898.41;5017021;28;20622;-58
2022/04/30 06:40:36;;;;;;;15.20;13.90;;;;;;;20.33;90.95;99899.31;5016933;28;20274;-58
2022/04/30 06:43:03;;;;;;;15.70;14.07;;;;;;;20.19;91.39;99898.41;5015762;28;20235;-59
2022/04/30 06:45:30;;;;;;;14.93;13.52;;;;;;;20.09;91.74;99896.44;5017534;28;20604;-54
2022/04/30 06:47:57;;;;;;;15.07;13.70;;;;;;;20.11;92.27;99897.16;5017544;28;20208;-54
2022/04/30 06:50:24;;;;;;;16.52;14.68;;;;;;;20.75;87.97;99903.69;5017656;28;20262;-54
2022/04/30 06:58:21;;;;;;;13.88;12.48;;;;;;;22.43;78.81;99889.53;5016559;28;20206;-54
2022/04/30 07:03:41;;;;;;;13.30;11.98;;;;;;;23.64;71.46;99893.81;4980429;28;20229;-58
2022/04/30 07:06:11;;;;;;;13.20;12.00;;;;;;;23.85;70.31;99892.16;5016321;28;20561;-59
2022/04/30 07:08:38;;;;;;;12.38;11.13;;;;;;;24.60;69.00;99898.53;5012561;28;20206;-60
2022/04/30 07:11:06;;;;;;;12.70;11.60;;;;;;;24.93;66.59;99897.66;5026552;28;20665;-60
2022/04/30 07:13:33;;;;;;;12.30;11.10;;;;;;;25.06;66.16;99905.44;5026927;28;20198;-59
2022/04/30 07:16:00;;;;;;;12.65;11.65;;;;;;;25.06;67.10;99897.47;5026778;28;20197;-58
2022/04/30 07:18:27;;;;;;;12.73;11.57;;;;;;;25.51;64.62;99898.09;5026757;28;20697;-58
2022/04/30 07:20:55;;;;;;;11.65;10.68;;;;;;;25.81;62.56;99902.66;5017275;28;20201;-50
2022/04/30 07:23:22;;;;;;;11.00;10.00;;;;;;;25.27;60.90;99887.75;5012421;28;20316;-57
2022/04/30 07:25:50;;;;;;;10.27;9.32;;;;;;;25.26;61.46;99909.13;5007176;28;20309;-59
2022/04/30 07:28:18;;;;;;;9.52;8.93;;;;;;;24.99;60.79;99914.03;5007650;28;20679;-59
2022/04/30 07:30:45;;;;;;;12.70;11.30;;;;;;;24.67;61.65;99906.03;5007096;28;20205;-58
2022/04/30 07:33:12;;;;;;;10.40;9.32;;;;;;;25.20;61.55;99904.31;5013249;28;20189;-57
2022/04/30 07:35:39;;;;;;;9.60;8.88;;;;;;;25.64;59.00;99888.13;5025031;28;20292;-58
2022/04/30 07:38:06;;;;;;;10.60;9.50;;;;;;;26.11;57.43;99901.81;5021153;28;20273;-57
2022/04/30 07:40:35;;;;;;;10.60;9.55;;;;;;;25.89;58.44;99907.31;5008589;28;20220;-58
2022/04/30 07:43:02;;;;;;;10.55;9.77;;;;;;;26.27;56.82;99904.00;5007285;28;20749;-58
2022/04/30 07:45:31;;;;;;;9.65;8.90;;;;;;;26.46;57.65;99901.41;5007129;28;20202;-56
2022/04/30 07:47:58;;;;;;;10.48;9.73;;;;;;;27.01;55.30;99912.47;5007647;28;20209;-58
2022/04/30 07:50:26;;;;;;;12.40;9.95;;;;;;;27.50;53.02;99902.66;5007689;28;20288;-57
2022/04/30 07:52:53;;;;;;;11.27;10.38;;;;;;;27.45;53.79;99900.41;5007272;28;20653;-57
2022/04/30 07:55:20;;;;;;;10.45;9.52;;;;;;;28.28;51.04;99898.81;5007168;28;20217;-57
2022/04/30 07:57:47;;;;;;;11.55;10.65;;;;;;;27.48;51.12;99871.63;5007087;28;20197;-58
2022/04/30 08:00:14;;;;;;;10.57;9.75;;;;;;;27.50;51.43;99897.31;5007446;28;20593;-58
2022/04/30 08:02:42;;;;;;;10.93;10.07;;;;;;;27.82;50.74;99888.00;5007106;28;20414;-58
2022/04/30 08:05:10;;;;;;;10.98;9.95;;;;;;;27.21;52.46;99892.00;5007967;28;20205;-58
2022/04/30 08:07:37;;;;;;;10.90;10.00;;;;;;;27.08;53.07;99886.97;5008942;28;20752;-57
2022/04/30 08:10:04;;;;;;;10.68;9.70;;;;;;;27.29;53.34;99894.81;5011223;28;20209;-58
2022/04/30 08:12:31;;;;;;;12.38;11.27;;;;;;;26.45;56.10;99886.41;5010273;28;20197;-58
2022/04/30 08:14:58;;;;;;;11.38;10.57;;;;;;;26.69;56.36;99888.72;5011013;28;20578;-58
2022/04/30 08:17:27;;;;;;;11.82;10.18;;;;;;;27.09;53.19;99888.63;5010792;28;20289;-57
2022/04/30 08:19:55;;;;;;;11.20;10.30;;;;;;;27.52;52.65;99895.34;5010193;28;20233;-58
2022/04/30 08:22:22;;;;;;;10.95;10.15;;;;;;;26.75;53.03;99893.47;5009978;28;20702;-58
2022/04/30 08:24:49;;;;;;;11.00;10.20;;;;;;;26.37;53.17;99891.59;5010355;28;20244;-58
2022/04/30 08:27:16;;;;;;;11.80;10.80;;;;;;;25.76;55.49;99888.91;5010867;28;20671;-57
2022/04/30 08:29:44;;;;;;;11.98;10.90;;;;;;;25.18;56.32;99885.81;5010396;28;20198;-57
2022/04/30 08:32:12;;;;;;;11.27;10.45;;;;;;;24.59;58.59;99882.75;5010391;28;20293;-53
2022/04/30 08:34:39;;;;;;;11.43;10.50;;;;;;;23.66;60.42;99882.16;5010544;28;20198;-55
2022/04/30 08:37:08;;;;;;;12.48;11.48;;;;;;;23.15;62.79;99873.66;5010203;28;20198;-53
2022/04/30 08:39:34;;;;;;;11.05;10.05;;;;;;;23.02;63.48;99876.41;5010205;28;20671;-53
2022/04/30 08:42:05;;;;;;;10.88;9.95;;;;;;;22.93;62.00;99865.63;5010352;28;20205;-54
2022/04/30 08:44:32;;;;;;;11.10;10.30;;;;;;;23.14;60.92;99871.97;5010498;28;20222;-54
2022/04/30 08:46:59;;;;;;;10.25;9.55;;;;;;;23.24;59.17;99866.84;5010275;28;20672;-54
2022/04/30 08:49:27;;;;;;;11.20;10.15;;;;;;;22.79;60.78;99870.19;5010245;28;20214;-54
2022/04/30 08:51:53;;;;;;;11.70;10.85;;;;;;;21.98;63.62;99867.19;5009844;28;20202;-53
2022/04/30 08:54:22;;;;;;;11.63;10.73;;;;;;;21.96;64.50;99869.06;5009997;28;20280;-53
2022/04/30 08:56:53;;;;;;;11.02;10.23;;;;;;;21.94;63.86;99859.53;5010049;28;20687;-53
2022/04/30 08:59:21;;;;;;;10.60;9.80;;;;;;;22.43;62.83;99857.78;5010023;28;20663;-54
2022/04/30 09:01:49;;;;;;;9.98;9.05;;;;;;;23.11;60.29;99853.69;5025984;28;20719;-57
2022/04/30 09:04:16;;;;;;;9.10;8.43;;;;;;;24.06;56.36;99852.50;5029576;28;20228;-58
2022/04/30 09:06:47;;;;;;;9.40;8.80;;;;;;;24.03;56.19;99856.28;5029298;28;20194;-57
2022/04/30 09:09:24;;;;;;;9.05;8.23;;;;;;;24.56;56.16;99852.00;5029655;28;20208;-57
2022/04/30 09:11:51;;;;;;;8.95;8.35;;;;;;;25.01;55.20;99851.03;5029518;28;20201;-57
2022/04/30 09:14:24;;;;;;;9.27;8.60;;;;;;;24.89;54.17;99847.53;5029530;28;20198;-57
2022/04/30 09:17:02;;;;;;;9.07;8.13;;;;;;;24.12;55.94;99841.44;5029154;28;20284;-58
2022/04/30 09:19:29;;;;;;;9.02;8.32;;;;;;;24.16;56.38;99840.22;5027526;28;20208;-58
2022/04/30 09:21:56;;;;;;;8.63;7.95;;;;;;;24.78;56.35;99842.28;5009858;28;20599;-57
2022/04/30 09:24:24;;;;;;;9.10;7.72;;;;;;;25.38;53.97;99839.00;5009700;28;20222;-56
2022/04/30 09:26:52;;;;;;;11.52;7.70;;;;;;;25.91;52.15;99853.03;5009464;28;20675;-57
2022/04/30 09:29:21;;;;;;;7.82;7.32;;;;;;;26.34;49.77;99841.28;5009663;28;20217;-57
2022/04/30 09:31:51;;;;;;;8.73;8.02;;;;;;;26.07;50.45;99838.38;5009331;28;20636;-57
2022/04/30 09:39:51;;;;;;;9.10;8.40;;;;;;;25.63;51.05;99835.09;5009303;28;20205;-57
2022/04/30 09:42:18;;;;;;;8.23;7.60;;;;;;;25.48;51.84;99817.78;5009336;28;20572;-56
2022/04/30 09:44:44;;;;;;;9.02;8.40;;;;;;;25.37;51.78;99824.03;5009267;28;20715;-57
2022/04/30 09:47:11;;;;;;;8.23;7.65;;;;;;;25.79;51.03;99818.66;5009371;28;20598;-57
2022/04/30 09:55:09;;;;;;;6.40;5.95;;;;;;;25.80;47.70;99812.38;5009252;28;20197;-56
2022/04/30 09:57:38;;;;;;;6.68;6.28;;;;;;;26.29;47.07;99817.75;5009380;28;20694;-57
2022/04/30 10:00:08;;;;;;;6.03;5.63;;;;;;;26.38;44.75;99808.09;5015272;28;20197;-59
2022/04/30 10:02:35;;;;;;;6.13;5.72;;;;;;;26.66;45.47;99809.94;5024015;28;20202;-57
2022/04/30 10:05:04;;;;;;;6.72;5.47;;;;;;;27.05;44.84;99796.66;5024543;28;20308;-57
2022/04/30 10:07:33;;;;;;;5.45;5.15;;;;;;;26.90;42.68;99808.69;5028853;28;20667;-57
2022/04/30 10:10:09;;;;;;;5.07;4.78;;;;;;;26.99;42.42;99805.19;5028655;28;20701;-59
2022/04/30 10:12:43;;;;;;;5.13;4.88;;;;;;;26.68;42.49;99810.66;5028244;28;20215;-58
2022/04/30 10:15:21;;;;;;;4.82;4.43;;;;;;;25.94;42.96;99807.53;5026802;28;20197;-58
2022/04/30 10:17:52;;;;;;;4.82;4.53;;;;;;;25.42;44.79;99807.66;5026624;28;20193;-58
2022/04/30 10:20:29;;;;;;;5.03;4.72;;;;;;;24.88;46.23;99800.72;5028263;28;20611;-58
2022/04/30 10:22:58;;;;;;;5.25;4.85;;;;;;;23.97;48.13;99792.25;5028462;28;20674;-57
2022/04/30 10:25:35;;;;;;;4.97;4.38;;;;;;;23.99;48.51;99779.72;5028236;28;20233;-58
2022/04/30 10:28:18;;;;;;;4.55;4.35;;;;;;;23.61;49.20;99770.34;5027510;28;20682;-58
2022/04/30 10:30:46;;;;;;;5.55;4.45;;;;;;;23.91;50.34;99774.22;5028180;28;20207;-58
2022/04/30 10:33:13;;;;;;;4.30;4.10;;;;;;;23.93;49.99;99772.28;5028356;28;20197;-58
2022/04/30 10:35:43;;;;;;;4.60;4.30;;;;;;;24.03;49.48;99773.22;5028275;28;20292;-57
2022/04/30 10:38:17;;;;;;;4.32;4.07;;;;;;;24.10;49.71;99747.88;5025978;28;20201;-58
2022/04/30 10:40:47;;;;;;;4.95;4.68;;;;;;;24.38;50.29;99776.53;5016735;28;20271;-58
2022/04/30 10:43:19;;;;;;;5.43;5.03;;;;;;;24.13;51.14;99774.16;5008379;28;20330;-57
2022/04/30 10:45:46;;;;;;;5.22;4.93;;;;;;;23.65;51.01;99758.56;5008661;28;20217;-57
2022/04/30 10:48:13;;;;;;;5.68;5.28;;;;;;;23.12;52.85;99770.66;5008482;28;20206;-57
2022/04/30 10:50:41;;;;;;;4.93;4.53;;;;;;;23.12;53.25;99775.94;5008430;28;20212;-56
2022/04/30 10:53:10;;;;;;;4.90;4.60;;;;;;;23.04;52.55;99770.38;5008420;28;20798;-57
2022/04/30 10:55:39;;;;;;;5.10;4.53;;;;;;;23.28;52.57;99772.94;5008362;28;20208;-58
2022/04/30 10:58:06;;;;;;;4.95;4.65;;;;;;;23.50;51.45;99767.69;5008380;28;20595;-54
2022/04/30 11:00:35;;;;;;;4.95;4.60;;;;;;;23.35;52.52;99759.13;5008230;28;20316;-54
2022/04/30 11:03:09;;;;;;;5.40;5.00;;;;;;;23.33;52.16;99770.78;5007957;28;20204;-54
2022/04/30 11:05:37;;;;;;;4.88;4.57;;;;;;;23.12;51.78;99766.19;5008120;28;20205;-54
2022/04/30 11:08:04;;;;;;;5.45;4.30;;;;;;;22.89;52.33;99743.28;5008228;28;20194;-54
2022/04/30 11:10:32;;;;;;;5.13;4.72;;;;;;;22.88;53.14;99762.75;5008074;28;20190;-55
2022/04/30 11:13:06;;;;;;;5.15;4.70;;;;;;;22.55;53.04;99752.03;5008143;28;20275;-54
2022/04/30 11:15:35;;;;;;;4.63;4.43;;;;;;;22.65;53.61;99760.97;5007955;28;20620;-53
2022/04/30 11:18:02;;;;;;;4.50;4.20;;;;;;;22.48;53.03;99750.78;5007763;28;20304;-53
2022/04/30 11:20:29;;;;;;;4.57;4.38;;;;;;;22.56;53.33;99740.50;5007885;28;20281;-54
2022/04/30 11:22:57;;;;;;;4.22;4.03;;;;;;;22.57;53.79;99742.19;5007618;28;20198;-54
2022/04/30 11:25:32;;;;;;;4.43;4.22;;;;;;;22.73;53.05;99738.25;5007640;28;20226;-54
2022/04/30 11:27:59;;;;;;;4.82;4.53;;;;;;;23.01;52.95;99739.69;5007644;28;20305;-54
2022/04/30 11:30:27;;;;;;;4.32;4.03;;;;;;;22.97;49.12;99740.88;5007550;28;20205;-53
2022/04/30 11:32:55;;;;;;;4.38;3.97;;;;;;;22.89;50.44;99731.84;5007499;28;20198;-55
2022/04/30 11:35:22;;;;;;;4.15;3.92;;;;;;;22.70;51.89;99729.69;5007596;28;20190;-54
2022/04/30 11:37:49;;;;;;;4.05;3.72;;;;;;;22.74;51.19;99725.88;5007367;28;20379;-53
2022/04/30 11:40:16;;;;;;;3.70;3.50;;;;;;;22.77;50.97;99728.31;5007404;28;20259;-54
2022/04/30 11:42:43;;;;;;;3.90;3.70;;;;;;;22.55;50.04;99721.13;5007975;28;20669;-54
2022/04/30 11:45:10;;;;;;;3.55;3.35;;;;;;;22.57;50.18;99723.66;5007758;28;20593;-54
2022/04/30 11:47:37;;;;;;;4.78;3.45;;;;;;;22.43;51.13;99729.97;5007451;28;20205;-53
2022/04/30 11:50:08;;;;;;;3.58;3.28;;;;;;;22.51;51.07;99724.94;5007375;28;20201;-54
2022/04/30 11:52:35;;;;;;;3.13;2.92;;;;;;;22.52;49.91;99725.78;5007741;28;20209;-53
2022/04/30 11:55:04;;;;;;;3.08;2.88;;;;;;;22.58;49.96;99712.09;5007762;28;20205;-53
2022/04/30 11:57:33;;;;;;;2.97;2.88;;;;;;;22.60;49.69;99711.03;5007025;28;20198;-54